Time;durP1;ratioP1;P1;durP2;ratioP2;P2;SDS_P1;SDS_P2;PMS_P1;PMS_P2;Temp;Humidity;BMP_temperature;BMP_pressure;BME280_temperature;BME280_humidity;BME280_pressure;Samples;Min_cycle;Max_cycle;Signal;HPM_P1;HPM_P2
2023/05/06 00:01:50;;;;;;;;;1.00;1.00;;;;;21.55;44.33;101592.70;110211;1249;21525;-42
2023/05/06 00:04:17;;;;;;;;;2.00;2.00;;;;;21.55;44.52;101594.16;110170;1265;18581;-41
2023/05/06 00:06:46;;;;;;;;;2.00;2.00;;;;;21.54;44.38;101596.20;110179;1265;20045;-44
2023/05/06 00:09:13;;;;;;;;;1.00;1.00;;;;;21.54;44.42;101596.04;110245;1265;18372;-39
2023/05/06 00:11:40;;;;;;;;;2.00;2.00;;;;;21.55;44.44;101597.26;109998;1267;21638;-41
2023/05/06 00:14:08;;;;;;;;;1.00;1.00;;;;;21.55;44.47;101594.88;110268;1265;19381;-41
2023/05/06 00:16:35;;;;;;;;;2.00;2.00;;;;;21.55;44.41;101600.20;110181;1251;22168;-40
2023/05/06 00:19:03;;;;;;;;;2.00;2.00;;;;;21.54;44.32;101599.69;110169;1251;20137;-42
2023/05/06 00:21:30;;;;;;;;;2.00;2.00;;;;;21.55;44.30;101601.66;110181;1250;20852;-40
2023/05/06 00:23:58;;;;;;;;;2.00;2.00;;;;;21.54;44.41;101599.48;110208;1250;22112;-40
2023/05/06 00:26:26;;;;;;;;;2.00;2.00;;;;;21.55;44.43;101606.17;110270;1265;18632;-40
2023/05/06 00:28:53;;;;;;;;;2.00;2.00;;;;;21.55;44.43;101606.19;110236;1251;22531;-39
2023/05/06 00:31:21;;;;;;;;;1.00;1.00;;;;;21.54;44.20;101603.36;110252;1251;19614;-39
2023/05/06 00:33:48;;;;;;;;;1.50;1.50;;;;;21.55;44.37;101600.02;110253;1265;21343;-39
2023/05/06 00:36:16;;;;;;;;;2.00;2.00;;;;;21.55;44.24;101603.84;110233;1266;19334;-39
2023/05/06 00:38:44;;;;;;;;;2.00;2.00;;;;;21.55;44.43;101603.63;110214;1251;19636;-40
2023/05/06 00:41:11;;;;;;;;;2.00;2.00;;;;;21.55;44.23;101602.20;110166;1265;18633;-41
2023/05/06 00:43:38;;;;;;;;;2.00;2.00;;;;;21.55;44.17;101601.62;110124;1265;19370;-41
2023/05/06 00:46:05;;;;;;;;;4.00;4.00;;;;;21.54;44.31;101602.20;110151;1250;91285;-41
2023/05/06 00:48:33;;;;;;;;;2.00;1.00;;;;;21.55;44.41;101607.05;110259;1251;20171;-40
2023/05/06 00:51:00;;;;;;;;;2.00;2.00;;;;;21.55;44.25;101604.70;110282;1250;20776;-40
2023/05/06 00:53:27;;;;;;;;;2.00;2.00;;;;;21.55;44.27;101601.62;110301;1265;22840;-41
2023/05/06 00:55:55;;;;;;;;;4.00;4.00;;;;;21.55;44.33;101605.48;110272;1265;18772;-39
2023/05/06 00:58:22;;;;;;;;;2.00;2.00;;;;;21.55;44.17;101607.56;110300;1260;20707;-41
2023/05/06 01:00:50;;;;;;;;;4.00;2.00;;;;;21.54;44.32;101605.86;110279;1251;19639;-44
2023/05/06 01:03:18;;;;;;;;;4.50;4.00;;;;;21.55;44.35;101602.00;110260;1260;20120;-39
2023/05/06 01:05:46;;;;;;;;;2.00;2.00;;;;;21.55;44.14;101598.08;110242;1250;19373;-39
2023/05/06 01:08:13;;;;;;;;;2.00;2.00;;;;;21.57;44.34;101597.36;110246;1251;19620;-39
2023/05/06 01:10:40;;;;;;;;;2.00;2.00;;;;;21.57;44.08;101594.67;110267;1250;20019;-39
2023/05/06 01:13:07;;;;;;;;;1.00;1.00;;;;;21.56;44.34;101596.34;110228;1251;22321;-41
2023/05/06 01:15:35;;;;;;;;;1.50;1.50;;;;;21.56;44.47;101593.71;110188;1265;18504;-40
2023/05/06 01:18:02;;;;;;;;;2.00;2.00;;;;;21.56;44.38;101596.06;110192;1251;22383;-41
2023/05/06 01:20:30;;;;;;;;;2.00;2.00;;;;;21.55;44.37;101593.61;110211;1250;20846;-41
2023/05/06 01:22:58;;;;;;;;;1.00;1.00;;;;;21.55;44.26;101589.80;110218;1251;19520;-42
2023/05/06 01:25:25;;;;;;;;;2.00;2.00;;;;;21.57;44.53;101593.22;110191;1251;20007;-42
2023/05/06 01:27:52;;;;;;;;;14.00;11.50;;;;;21.59;44.40;101596.64;110184;1265;19375;-41
2023/05/06 01:30:20;;;;;;;;;23.50;20.00;;;;;21.60;44.26;101599.07;110215;1251;19807;-41
2023/05/06 01:32:47;;;;;;;;;27.50;26.00;;;;;21.61;44.34;101601.02;110193;1266;22466;-42
2023/05/06 01:35:14;;;;;;;;;68.50;50.50;;;;;21.62;44.34;101600.85;110198;1251;20624;-42
2023/05/06 01:37:42;;;;;;;;;81.00;54.00;;;;;21.64;44.51;101598.36;110221;1250;20080;-41
2023/05/06 01:40:09;;;;;;;;;82.00;63.33;;;;;21.61;44.66;101597.34;110220;1260;20077;-41
2023/05/06 01:42:36;;;;;;;;;68.00;46.50;;;;;21.60;44.56;101597.60;110209;1251;22070;-41
2023/05/06 01:45:04;;;;;;;;;59.00;47.00;;;;;21.62;44.54;101593.30;110198;1251;20057;-41
2023/05/06 01:47:31;;;;;;;;;63.00;45.00;;;;;21.60;44.64;101595.25;110223;1251;20220;-41
2023/05/06 01:49:58;;;;;;;;;57.50;45.50;;;;;21.58;44.38;101591.08;110204;1260;20312;-41
2023/05/06 01:52:26;;;;;;;;;49.50;37.00;;;;;21.57;44.45;101594.61;110203;1251;20014;-42
2023/05/06 01:54:53;;;;;;;;;37.00;32.33;;;;;21.56;44.39;101592.73;110181;1265;18746;-41
2023/05/06 01:57:20;;;;;;;;;43.00;36.67;;;;;21.56;44.38;101592.05;110164;1265;22104;-40
2023/05/06 01:59:48;;;;;;;;;43.00;30.50;;;;;21.56;44.51;101591.67;110230;1251;18607;-41
2023/05/06 02:02:15;;;;;;;;;40.00;33.00;;;;;21.56;44.34;101591.88;110204;1251;22098;-42
2023/05/06 02:04:42;;;;;;;;;30.00;27.00;;;;;21.56;44.42;101584.40;110221;1265;19586;-41
2023/05/06 02:07:10;;;;;;;;;23.00;21.00;;;;;21.56;44.25;101580.08;110249;1251;22969;-40
2023/05/06 02:09:37;;;;;;;;;23.00;21.00;;;;;21.55;44.43;101583.17;110279;1250;18908;-40
2023/05/06 02:12:04;;;;;;;;;27.00;21.00;;;;;21.55;44.35;101586.11;110264;1265;19395;-40
2023/05/06 02:14:32;;;;;;;;;18.00;17.00;;;;;21.55;44.24;101578.89;110234;1260;18626;-40
2023/05/06 02:16:59;;;;;;;;;21.00;18.00;;;;;21.54;44.23;101583.92;110227;1265;18727;-40
2023/05/06 02:19:26;;;;;;;;;17.00;14.00;;;;;21.53;44.33;101576.88;110197;1257;20710;-40
2023/05/06 02:21:53;;;;;;;;;16.00;15.00;;;;;21.53;44.42;101574.70;110210;1251;20015;-40
2023/05/06 02:24:21;;;;;;;;;20.00;15.50;;;;;21.53;44.31;101571.64;110133;1251;20187;-40
2023/05/06 02:26:48;;;;;;;;;17.50;14.00;;;;;21.53;44.19;101572.14;110214;1259;20686;-40
2023/05/06 02:29:15;;;;;;;;;11.50;11.50;;;;;21.53;44.17;101567.58;110247;1260;19944;-40
2023/05/06 02:31:43;;;;;;;;;11.00;11.00;;;;;21.53;44.22;101562.58;110245;1251;20069;-41
2023/05/06 02:34:10;;;;;;;;;11.50;11.00;;;;;21.52;44.17;101559.71;110082;1251;22216;-41
2023/05/06 02:36:37;;;;;;;;;12.00;9.00;;;;;21.52;44.25;101561.17;110096;1265;18553;-40
2023/05/06 02:39:05;;;;;;;;;10.00;10.00;;;;;21.52;44.00;101560.80;110191;1250;20121;-42
2023/05/06 02:41:32;;;;;;;;;8.50;7.50;;;;;21.53;44.09;101563.64;110187;1251;20785;-41
2023/05/06 02:43:59;;;;;;;;;10.50;10.50;;;;;21.53;44.13;101567.48;110158;1265;18597;-41
2023/05/06 02:46:26;;;;;;;;;10.00;10.00;;;;;21.52;43.96;101567.34;110210;1250;20260;-41
2023/05/06 02:48:54;;;;;;;;;11.00;10.00;;;;;21.53;44.07;101571.83;110221;1250;20660;-42
2023/05/06 02:51:21;;;;;;;;;8.00;8.00;;;;;21.53;44.03;101564.39;110189;1265;18547;-41
2023/05/06 02:53:48;;;;;;;;;6.00;6.00;;;;;21.53;44.07;101569.44;110252;1250;21631;-42
2023/05/06 02:56:16;;;;;;;;;8.00;8.00;;;;;21.52;43.99;101568.27;110292;1251;20973;-42
2023/05/06 02:58:43;;;;;;;;;10.00;5.00;;;;;21.53;44.03;101569.49;110267;1265;19512;-42
2023/05/06 03:01:10;;;;;;;;;9.00;7.00;;;;;21.53;43.92;101571.48;110257;1265;18657;-41
2023/05/06 03:03:38;;;;;;;;;8.00;7.00;;;;;21.53;44.07;101572.20;110277;1265;19333;-42
2023/05/06 03:06:05;;;;;;;;;10.00;10.00;;;;;21.52;44.13;101572.26;110251;1251;19546;-41
2023/05/06 03:08:32;;;;;;;;;9.00;6.00;;;;;21.53;43.86;101571.83;110283;1257;22686;-41
2023/05/06 03:11:00;;;;;;;;;8.00;8.00;;;;;21.53;43.92;101569.27;110281;1250;19372;-41
2023/05/06 03:13:27;;;;;;;;;7.50;6.00;;;;;21.53;43.83;101571.85;110309;1251;19645;-41
2023/05/06 03:15:55;;;;;;;;;6.00;5.00;;;;;21.53;43.78;101568.59;110260;1265;18564;-41
2023/05/06 03:18:22;;;;;;;;;4.00;4.00;;;;;21.52;43.79;101564.48;110261;1265;19337;-41
2023/05/06 03:20:50;;;;;;;;;8.00;6.00;;;;;21.52;43.89;101565.56;110293;1265;18535;-41
2023/05/06 03:23:17;;;;;;;;;4.50;4.00;;;;;21.52;43.79;101561.17;110309;1265;18795;-41
2023/05/06 03:25:45;;;;;;;;;4.00;2.00;;;;;21.52;43.83;101555.00;110283;1251;22653;-42
2023/05/06 03:28:12;;;;;;;;;4.00;4.00;;;;;21.53;44.00;101555.48;110278;1251;19644;-42
2023/05/06 03:30:39;;;;;;;;;4.00;4.00;;;;;21.52;43.71;101556.61;110252;1251;20070;-41
2023/05/06 03:33:07;;;;;;;;;5.00;5.00;;;;;21.53;43.74;101552.59;110308;1265;20453;-42
2023/05/06 03:35:34;;;;;;;;;4.00;2.00;;;;;21.53;43.68;101560.37;110276;1265;18514;-41
2023/05/06 03:38:01;;;;;;;;;5.00;4.00;;;;;21.53;43.79;101565.27;110239;1251;22492;-41
2023/05/06 03:40:28;;;;;;;;;4.50;4.00;;;;;21.53;43.76;101566.17;110282;1265;19905;-42
2023/05/06 03:42:56;;;;;;;;;7.00;5.00;;;;;21.54;43.55;101568.66;110299;1259;19527;-41
2023/05/06 03:45:23;;;;;;;;;2.00;2.00;;;;;21.52;43.67;101565.14;110264;1251;22037;-41
2023/05/06 03:47:50;;;;;;;;;2.00;2.00;;;;;21.53;43.67;101562.74;110281;1265;19364;-41
2023/05/06 03:50:18;;;;;;;;;2.00;2.00;;;;;21.53;43.80;101562.58;110233;1250;19654;-42
2023/05/06 03:52:45;;;;;;;;;4.00;4.00;;;;;21.53;43.81;101558.15;110189;1265;18590;-41
2023/05/06 03:55:12;;;;;;;;;4.00;4.00;;;;;21.53;43.81;101558.55;110225;1265;19662;-41
2023/05/06 03:57:40;;;;;;;;;2.00;2.00;;;;;21.54;43.73;101556.62;110207;1251;20382;-42
2023/05/06 04:00:08;;;;;;;;;2.00;2.00;;;;;21.54;43.80;101557.20;110212;1250;20077;-42
2023/05/06 04:02:35;;;;;;;;;4.00;4.00;;;;;21.53;43.49;101556.58;110206;1265;19422;-42
2023/05/06 04:05:03;;;;;;;;;4.00;2.00;;;;;21.53;43.74;101552.59;110198;1260;22252;-42
2023/05/06 04:07:30;;;;;;;;;4.00;2.00;;;;;21.53;43.68;101553.41;110176;1265;18627;-41
2023/05/06 04:09:58;;;;;;;;;4.00;4.00;;;;;21.53;43.68;101555.42;110197;1251;20957;-41
2023/05/06 04:12:26;;;;;;;;;4.00;2.00;;;;;21.53;43.67;101560.36;110212;1265;18422;-44
2023/05/06 04:14:53;;;;;;;;;2.00;2.00;;;;;21.53;43.57;101557.60;110207;1266;18669;-42
2023/05/06 04:17:20;;;;;;;;;2.00;2.00;;;;;21.53;43.56;101556.31;110187;1251;20751;-41
2023/05/06 04:19:48;;;;;;;;;2.00;2.00;;;;;21.53;43.59;101552.70;110208;1250;18382;-42
2023/05/06 04:22:15;;;;;;;;;2.00;2.00;;;;;21.53;43.71;101552.59;110181;1265;19960;-41
2023/05/06 04:24:44;;;;;;;;;2.00;2.00;;;;;21.54;43.65;101559.41;110174;1265;19423;-43
2023/05/06 04:27:11;;;;;;;;;2.00;2.00;;;;;21.53;43.64;101550.74;110204;1265;18422;-41
2023/05/06 04:29:39;;;;;;;;;1.00;1.00;;;;;21.53;43.61;101548.13;110148;1251;20033;-43
2023/05/06 04:32:09;;;;;;;;;2.00;2.00;;;;;21.53;43.66;101546.21;110019;1266;19434;-41
2023/05/06 04:34:36;;;;;;;;;4.00;4.00;;;;;21.53;43.51;101545.64;109963;1266;18636;-41
2023/05/06 04:37:03;;;;;;;;;2.00;2.00;;;;;21.53;43.62;101542.70;110093;1266;19418;-41
2023/05/06 04:39:31;;;;;;;;;2.00;2.00;;;;;21.54;43.53;101541.38;110024;1253;20733;-41
2023/05/06 04:41:59;;;;;;;;;1.50;1.50;;;;;21.52;43.67;101542.80;110013;1254;19584;-41
2023/05/06 04:44:28;;;;;;;;;1.00;1.00;;;;;21.52;43.31;101544.45;110019;1260;20040;-41
2023/05/06 04:46:55;;;;;;;;;1.00;1.00;;;;;21.53;43.51;101546.00;110060;1253;20755;-42
2023/05/06 04:49:23;;;;;;;;;1.00;1.00;;;;;21.53;43.59;101552.73;109923;1253;19652;-41
2023/05/06 04:51:50;;;;;;;;;1.00;1.00;;;;;21.53;43.52;101551.66;109985;1251;20091;-45
2023/05/06 04:54:17;;;;;;;;;2.00;1.50;;;;;21.53;43.48;101546.98;110062;1260;20788;-41
2023/05/06 04:56:44;;;;;;;;;1.00;1.00;;;;;21.53;43.37;101552.05;110029;1252;23756;-40
2023/05/06 04:59:12;;;;;;;;;1.50;1.50;;;;;21.52;43.32;101550.84;110023;1254;20064;-41
2023/05/06 05:01:39;;;;;;;;;1.33;1.33;;;;;21.52;43.38;101543.39;110029;1266;21979;-41
2023/05/06 05:04:06;;;;;;;;;2.00;1.00;;;;;21.52;43.65;101542.09;110043;1266;18526;-41
2023/05/06 05:06:34;;;;;;;;;1.00;1.00;;;;;21.51;43.52;101536.23;110029;1259;21035;-42
2023/05/06 05:09:01;;;;;;;;;1.00;1.00;;;;;21.51;43.48;101532.98;110045;1254;20794;-42
2023/05/06 05:11:28;;;;;;;;;1.00;1.00;;;;;21.51;43.54;101533.17;110035;1260;19532;-41
2023/05/06 05:13:56;;;;;;;;;1.00;1.00;;;;;21.51;43.48;101532.52;110035;1253;20100;-41
2023/05/06 05:16:23;;;;;;;;;1.00;1.00;;;;;21.51;43.48;101531.63;110056;1266;19226;-41
2023/05/06 05:18:50;;;;;;;;;1.00;1.00;;;;;21.51;43.61;101524.91;110013;1253;19671;-42
2023/05/06 05:21:19;;;;;;;;;4.00;4.00;;;;;21.51;43.40;101523.14;110017;1260;19960;-42
2023/05/06 05:23:47;;;;;;;;;1.00;1.00;;;;;21.50;43.54;101526.98;110018;1254;20971;-42
2023/05/06 05:26:14;;;;;;;;;1.00;1.00;;;;;21.51;43.70;101516.96;110023;1253;19640;-41
2023/05/06 05:28:42;;;;;;;;;1.00;1.00;;;;;21.51;43.40;101520.73;110039;1266;19974;-41
2023/05/06 05:31:09;;;;;;;;;1.00;1.00;;;;;21.52;43.50;101522.67;110034;1254;20800;-42
2023/05/06 05:33:37;;;;;;;;;1.00;1.00;;;;;21.52;43.37;101517.77;110048;1251;18438;-42
2023/05/06 05:36:04;;;;;;;;;1.00;1.00;;;;;21.51;43.51;101519.05;110024;1266;22430;-42
2023/05/06 05:38:31;;;;;;;;;1.00;1.00;;;;;21.51;43.43;101517.06;110041;1260;20685;-41
2023/05/06 05:40:59;;;;;;;;;1.00;1.00;;;;;21.52;43.41;101524.60;110049;1251;19564;-42
2023/05/06 05:43:26;;;;;;;;;1.50;1.00;;;;;21.52;43.41;101521.00;110011;1266;19990;-42
2023/05/06 05:45:53;;;;;;;;;1.00;1.00;;;;;21.52;43.34;101521.17;110028;1254;20755;-41
2023/05/06 05:48:20;;;;;;;;;1.00;1.00;;;;;21.52;43.42;101522.31;110022;1254;20913;-42
2023/05/06 05:50:48;;;;;;;;;1.00;1.00;;;;;21.53;43.43;101522.69;110036;1266;18751;-40
2023/05/06 05:53:15;;;;;;;;;1.00;1.00;;;;;21.58;43.51;101524.34;110019;1266;19338;-42
2023/05/06 05:55:42;;;;;;;;;1.00;1.00;;;;;21.60;44.03;101520.70;110030;1250;19689;-42
2023/05/06 05:58:10;;;;;;;;;2.00;2.00;;;;;21.62;44.30;101522.89;110032;1266;19943;-41
2023/05/06 06:00:37;;;;;;;;;1.00;1.00;;;;;21.63;44.49;101519.73;110010;1266;19340;-44
2023/05/06 06:03:05;;;;;;;;;1.00;1.00;;;;;21.63;44.68;101515.02;109916;1254;22654;-42
2023/05/06 06:05:32;;;;;;;;;1.00;1.00;;;;;21.63;44.64;101512.04;110044;1266;18608;-41
2023/05/06 06:07:59;;;;;;;;;1.00;1.00;;;;;21.63;44.74;101515.55;110030;1266;19320;-41
2023/05/06 06:10:27;;;;;;;;;1.00;1.00;;;;;21.60;45.11;101517.57;110022;1266;18499;-42
2023/05/06 06:12:54;;;;;;;;;1.00;1.00;;;;;21.62;45.39;101515.92;110022;1252;20089;-41
2023/05/06 06:15:21;;;;;;;;;1.00;1.00;;;;;21.64;45.79;101509.73;110071;1266;19393;-41
2023/05/06 06:17:49;;;;;;;;;1.00;1.00;;;;;21.65;46.10;101512.39;110087;1266;18333;-42
2023/05/06 06:20:16;;;;;;;;;1.00;1.00;;;;;21.66;46.38;101505.70;110045;1254;20021;-44
2023/05/06 06:22:43;;;;;;;;;1.00;1.00;;;;;21.67;46.40;101501.09;110020;1267;19670;-41
2023/05/06 06:25:11;;;;;;;;;1.50;1.00;;;;;21.66;46.19;101499.69;110026;1251;19643;-41
2023/05/06 06:27:38;;;;;;;;;1.00;1.00;;;;;21.67;46.23;101498.91;110022;1260;19995;-42
2023/05/06 06:30:06;;;;;;;;;1.00;1.00;;;;;21.68;46.48;101497.38;109942;1251;21006;-42
2023/05/06 06:32:33;;;;;;;;;2.00;2.00;;;;;21.65;46.38;101491.23;110022;1254;19912;-41
2023/05/06 06:35:01;;;;;;;;;1.00;1.00;;;;;21.65;46.02;101492.77;110064;1251;20142;-41
2023/05/06 06:37:28;;;;;;;;;2.00;2.00;;;;;21.64;45.76;101492.11;110039;1266;19582;-42
2023/05/06 06:39:55;;;;;;;;;1.50;1.50;;;;;21.65;45.81;101481.56;110048;1266;18324;-41
2023/05/06 06:42:23;;;;;;;;;2.00;2.00;;;;;21.67;45.55;101493.41;110055;1251;20228;-42
2023/05/06 06:44:50;;;;;;;;;2.00;2.00;;;;;21.66;45.50;101485.95;109931;1251;22699;-41
2023/05/06 06:47:17;;;;;;;;;1.00;1.00;;;;;21.65;45.12;101483.86;109911;1266;19649;-42
2023/05/06 06:49:45;;;;;;;;;2.00;2.00;;;;;21.64;45.33;101482.69;109999;1266;18607;-43
2023/05/06 06:52:12;;;;;;;;;3.00;2.00;;;;;21.63;45.00;101490.22;110042;1251;19325;-44
2023/05/06 06:54:39;;;;;;;;;2.00;2.00;;;;;21.62;44.71;101488.31;110056;1266;19587;-41
2023/05/06 06:57:06;;;;;;;;;2.00;2.00;;;;;21.61;44.60;101491.51;110066;1251;19925;-41
2023/05/06 06:59:34;;;;;;;;;2.00;2.00;;;;;21.59;44.71;101505.19;110020;1251;20781;-41
2023/05/06 07:02:01;;;;;;;;;2.00;2.00;;;;;21.57;44.52;101500.60;110029;1254;19695;-44
2023/05/06 07:04:29;;;;;;;;;2.00;2.00;;;;;21.57;44.36;101501.17;110045;1251;18766;-41
2023/05/06 07:06:56;;;;;;;;;2.00;2.00;;;;;21.56;44.17;101509.42;110049;1254;20780;-41
2023/05/06 07:09:23;;;;;;;;;2.00;2.00;;;;;21.55;43.92;101509.05;109991;1254;22179;-41
2023/05/06 07:11:51;;;;;;;;;2.00;2.00;;;;;21.56;43.78;101514.78;110009;1253;22181;-41
2023/05/06 07:14:18;;;;;;;;;4.00;4.00;;;;;21.56;43.41;101516.17;109910;1266;22805;-41
2023/05/06 07:16:45;;;;;;;;;4.00;4.00;;;;;21.59;43.63;101521.18;109942;1254;19730;-42
2023/05/06 07:19:13;;;;;;;;;2.00;2.00;;;;;21.60;43.60;101526.16;110015;1251;18625;-42
2023/05/06 07:21:40;;;;;;;;;2.00;2.00;;;;;21.60;43.64;101527.80;110071;1254;20779;-41
2023/05/06 07:24:07;;;;;;;;;2.00;2.00;;;;;21.61;43.54;101524.39;110021;1253;19646;-42
2023/05/06 07:26:35;;;;;;;;;4.00;4.00;;;;;21.63;43.53;101518.80;110017;1251;20114;-41
2023/05/06 07:29:03;;;;;;;;;5.00;4.00;;;;;21.62;43.33;101520.84;110011;1254;20788;-46
2023/05/06 07:31:30;;;;;;;;;3.00;3.00;;;;;21.63;43.09;101522.95;110019;1266;22179;-42
2023/05/06 07:33:58;;;;;;;;;4.00;4.00;;;;;21.66;43.11;101514.86;110040;1266;18609;-42
2023/05/06 07:36:25;;;;;;;;;4.00;4.00;;;;;21.67;43.26;101513.09;110035;1253;20840;-41
2023/05/06 07:38:53;;;;;;;;;7.67;4.67;;;;;21.66;43.06;101510.05;110027;1266;19542;-42
2023/05/06 07:41:20;;;;;;;;;2.00;2.00;;;;;21.65;43.30;101512.76;110063;1266;22072;-43
2023/05/06 07:43:48;;;;;;;;;6.00;4.50;;;;;21.67;43.33;101513.42;109993;1253;23674;-44
2023/05/06 07:46:15;;;;;;;;;2.00;2.00;;;;;21.58;42.57;101515.80;110053;1254;19628;-42
2023/05/06 07:48:42;;;;;;;;;4.00;4.00;;;;;21.49;42.07;101510.63;110027;1251;18681;-43
2023/05/06 07:51:10;;;;;;;;;7.00;6.00;;;;;21.50;42.08;101503.60;110025;1266;19476;-40
2023/05/06 07:53:38;;;;;;;;;4.00;4.00;;;;;21.54;42.32;101500.62;110047;1266;22258;-43
2023/05/06 07:56:06;;;;;;;;;2.00;2.00;;;;;21.60;42.61;101506.55;110022;1251;18607;-45
2023/05/06 07:58:33;;;;;;;;;4.00;4.00;;;;;21.63;42.59;101505.70;110047;1267;20811;-41
2023/05/06 08:01:02;;;;;;;;;5.00;4.00;;;;;21.64;42.43;101499.77;110029;1266;18615;-40
2023/05/06 08:03:29;;;;;;;;;7.00;7.00;;;;;21.64;42.66;101503.21;110030;1254;20096;-44
2023/05/06 08:05:56;;;;;;;;;8.00;8.00;;;;;21.51;41.87;101499.41;109959;1266;19369;-42
2023/05/06 08:08:26;;;;;;;;;11.00;10.50;;;;;21.34;40.85;101500.15;109925;1260;19622;-41
2023/05/06 08:10:54;;;;;;;;;10.00;10.00;;;;;21.12;39.66;101491.95;109922;1251;19983;-42
2023/05/06 08:13:22;;;;;;;;;12.00;12.00;;;;;21.00;39.34;101492.98;109987;1251;23418;-42
2023/05/06 08:15:49;;;;;;;;;16.50;15.00;;;;;20.93;38.90;101496.66;110006;1266;18603;-41
2023/05/06 08:18:16;;;;;;;;;16.67;14.67;;;;;20.89;38.28;101492.00;110006;1266;19078;-42
2023/05/06 08:20:44;;;;;;;;;16.00;13.00;;;;;20.91;37.87;101489.94;110022;1266;19344;-41
2023/05/06 08:23:11;;;;;;;;;16.00;14.00;;;;;20.93;37.55;101487.97;110000;1266;21068;-43
2023/05/06 08:25:38;;;;;;;;;19.00;17.00;;;;;20.91;37.32;101490.67;109987;1266;22779;-41
2023/05/06 08:28:06;;;;;;;;;16.00;14.00;;;;;20.71;36.86;101492.55;110049;1254;20794;-39
2023/05/06 08:30:33;;;;;;;;;17.00;16.00;;;;;20.50;36.70;101491.66;110054;1251;20067;-41
2023/05/06 08:33:00;;;;;;;;;16.50;14.00;;;;;20.35;36.54;101488.47;110026;1266;18683;-41
2023/05/06 08:35:28;;;;;;;;;18.00;14.00;;;;;20.32;36.27;101488.41;110034;1251;21447;-40
2023/05/06 08:37:55;;;;;;;;;13.00;13.00;;;;;20.36;36.18;101492.73;109978;1254;21246;-41
2023/05/06 08:40:22;;;;;;;;;14.50;13.00;;;;;20.49;36.11;101497.98;109991;1266;18662;-42
2023/05/06 08:42:50;;;;;;;;;16.00;14.00;;;;;20.46;35.81;101499.52;110034;1250;20756;-41
2023/05/06 08:45:17;;;;;;;;;14.00;13.00;;;;;20.58;35.92;101502.52;109996;1251;20086;-41
2023/05/06 08:47:45;;;;;;;;;17.00;13.00;;;;;20.69;35.91;101498.05;109990;1266;20089;-40
2023/05/06 08:50:12;;;;;;;;;11.00;11.00;;;;;20.85;36.02;101502.73;110007;1260;19360;-44
2023/05/06 08:52:39;;;;;;;;;10.00;10.00;;;;;20.95;36.15;101497.73;110026;1254;20055;-40
2023/05/06 08:55:07;;;;;;;;;10.00;10.00;;;;;21.04;36.40;101502.39;109992;1251;21699;-40
2023/05/06 08:57:35;;;;;;;;;10.00;8.00;;;;;21.11;36.66;101503.76;110017;1266;19249;-41
2023/05/06 09:00:03;;;;;;;;;8.67;8.00;;;;;21.14;36.86;101504.06;110010;1266;19893;-41
2023/05/06 09:02:31;;;;;;;;;10.00;10.00;;;;;21.18;37.09;101503.89;110011;1266;18629;-40
2023/05/06 09:04:58;;;;;;;;;10.00;10.00;;;;;21.20;37.14;101507.33;109987;1266;20632;-42
2023/05/06 09:07:25;;;;;;;;;8.00;8.00;;;;;21.23;37.76;101511.71;110014;1266;19102;-40
2023/05/06 09:09:53;;;;;;;;;10.50;8.00;;;;;21.27;37.77;101511.80;110011;1260;19927;-40
2023/05/06 09:12:20;;;;;;;;;8.00;8.00;;;;;21.30;38.12;101512.41;109957;1254;22036;-41
2023/05/06 09:14:48;;;;;;;;;10.00;10.00;;;;;21.33;38.34;101515.34;109985;1259;18539;-42
2023/05/06 09:17:15;;;;;;;;;11.00;10.00;;;;;21.35;38.62;101516.98;109982;1266;18738;-42
2023/05/06 09:19:42;;;;;;;;;8.00;7.00;;;;;21.39;38.88;101517.11;109935;1266;22184;-41
2023/05/06 09:22:10;;;;;;;;;7.50;7.00;;;;;21.40;39.12;101523.02;109956;1254;20052;-41
2023/05/06 09:24:37;;;;;;;;;11.00;8.00;;;;;21.41;39.27;101517.14;110008;1266;18522;-41
2023/05/06 09:27:04;;;;;;;;;5.00;5.00;;;;;21.42;39.53;101516.45;109985;1254;20754;-41
2023/05/06 09:29:32;;;;;;;;;7.00;7.00;;;;;21.44;39.73;101517.76;110019;1260;19799;-41
2023/05/06 09:31:59;;;;;;;;;7.00;7.00;;;;;21.45;39.69;101521.80;110165;1265;20225;-40
2023/05/06 09:34:26;;;;;;;;;7.00;5.00;;;;;21.47;39.85;101523.20;110226;1265;19321;-41
2023/05/06 09:36:55;;;;;;;;;5.00;5.00;;;;;21.47;39.78;101526.61;110175;1265;18414;-42
2023/05/06 09:39:23;;;;;;;;;5.00;4.00;;;;;21.48;40.08;101527.60;110176;1251;20035;-42
2023/05/06 09:41:50;;;;;;;;;7.00;6.00;;;;;21.50;40.09;101523.90;110234;1265;19345;-41
2023/05/06 09:44:18;;;;;;;;;5.00;5.00;;;;;21.51;40.33;101525.80;110235;1266;19865;-42
2023/05/06 09:46:45;;;;;;;;;5.00;5.00;;;;;21.52;40.26;101522.87;110271;1250;20041;-42
2023/05/06 09:49:13;;;;;;;;;5.00;5.00;;;;;21.51;40.21;101524.34;110238;1251;20875;-42
2023/05/06 09:51:41;;;;;;;;;5.00;5.00;;;;;21.51;40.21;101523.87;110278;1251;19644;-44
2023/05/06 09:54:08;;;;;;;;;10.00;7.50;;;;;21.38;40.23;101523.24;110249;1265;18646;-43
2023/05/06 09:56:35;;;;;;;;;8.00;8.00;;;;;21.23;40.09;101528.66;110250;1265;22337;-43
2023/05/06 09:59:04;;;;;;;;;8.00;8.00;;;;;21.11;39.81;101522.92;110245;1265;18597;-43
2023/05/06 10:01:31;;;;;;;;;8.00;8.00;;;;;21.04;39.78;101528.15;110277;1251;20117;-42
2023/05/06 10:03:58;;;;;;;;;11.00;10.00;;;;;21.06;39.82;101528.20;110276;1259;20678;-42
2023/05/06 10:06:26;;;;;;;;;7.33;7.00;;;;;21.03;40.17;101524.50;110256;1265;22155;-49
2023/05/06 10:08:54;;;;;;;;;9.00;8.00;;;;;20.99;40.15;101525.66;110274;1250;19948;-42
2023/05/06 10:11:21;;;;;;;;;11.00;10.00;;;;;20.97;39.93;101524.41;110294;1250;20692;-44
2023/05/06 10:13:49;;;;;;;;;9.00;8.00;;;;;20.89;40.12;101526.17;110270;1250;19643;-43
2023/05/06 10:16:16;;;;;;;;;12.50;12.00;;;;;20.90;39.83;101518.58;110289;1265;18634;-47
2023/05/06 10:18:44;;;;;;;;;10.00;10.00;;;;;20.92;39.75;101517.70;110279;1265;19575;-42
2023/05/06 10:21:11;;;;;;;;;10.33;9.33;;;;;20.95;39.49;101513.92;110245;1250;20055;-42
2023/05/06 10:23:38;;;;;;;;;13.00;11.00;;;;;20.91;39.64;101513.09;110248;1265;18679;-43
2023/05/06 10:26:06;;;;;;;;;10.00;8.00;;;;;20.82;39.63;101507.63;110287;1249;20816;-42
2023/05/06 10:28:33;;;;;;;;;11.00;10.00;;;;;20.76;39.41;101504.23;110261;1265;18585;-42
2023/05/06 10:31:01;;;;;;;;;10.00;8.00;;;;;20.75;39.67;101498.67;110220;1265;18682;-48
2023/05/06 10:33:28;;;;;;;;;13.00;10.00;;;;;20.79;39.56;101498.33;110240;1251;20746;-43
2023/05/06 10:35:56;;;;;;;;;20.00;19.00;;;;;20.77;39.65;101497.05;110248;1265;18606;-43
2023/05/06 10:38:23;;;;;;;;;16.00;15.00;;;;;20.69;39.48;101495.35;110261;1265;19928;-43
2023/05/06 10:40:50;;;;;;;;;17.50;16.00;;;;;20.66;39.69;101493.64;110215;1265;19326;-43
2023/05/06 10:43:18;;;;;;;;;13.00;11.00;;;;;20.70;39.49;101491.45;110251;1257;18615;-43
2023/05/06 10:45:45;;;;;;;;;16.50;15.00;;;;;20.69;39.61;101490.11;110216;1260;20126;-42
2023/05/06 10:48:12;;;;;;;;;12.50;12.50;;;;;20.72;39.55;101491.44;110262;1251;22274;-42
2023/05/06 10:50:40;;;;;;;;;14.00;13.00;;;;;20.68;39.35;101488.77;110241;1251;18742;-42
2023/05/06 10:53:07;;;;;;;;;15.33;14.00;;;;;20.65;39.65;101486.35;110244;1265;18715;-42
2023/05/06 10:55:35;;;;;;;;;11.00;10.00;;;;;20.66;39.77;101483.73;110248;1265;21443;-44
2023/05/06 10:58:02;;;;;;;;;14.00;13.00;;;;;20.64;39.56;101482.24;110253;1260;21284;-43
2023/05/06 11:00:29;;;;;;;;;12.50;11.50;;;;;20.60;39.74;101477.10;110252;1251;20121;-42
2023/05/06 11:02:57;;;;;;;;;12.00;11.00;;;;;20.62;40.14;101474.48;110104;1266;19371;-42
2023/05/06 11:05:24;;;;;;;;;7.00;7.00;;;;;20.78;40.56;101473.02;110120;1260;22071;-40
2023/05/06 11:07:52;;;;;;;;;10.00;9.00;;;;;20.90;40.67;101470.44;110152;1260;19813;-40
2023/05/06 11:10:20;;;;;;;;;8.00;8.00;;;;;21.00;41.08;101469.59;110267;1260;20782;-40
2023/05/06 11:12:47;;;;;;;;;8.00;7.50;;;;;21.08;41.82;101467.11;110268;1250;19580;-43